sensor_id;sensor_type;location;lat;lon;timestamp;pressure;altitude;pressure_sealevel;temperature;humidity
38630;BME280;24384;51.988;4.644;2023-05-21T00:01:31;102042.56;;;14.75;69.57
38630;BME280;24384;51.988;4.644;2023-05-21T00:03:56;102041.69;;;14.76;70.95
38630;BME280;24384;51.988;4.644;2023-05-21T00:06:23;102036.94;;;14.85;69.97
38630;BME280;24384;51.988;4.644;2023-05-21T00:08:49;102047.31;;;14.93;70.09
38630;BME280;24384;51.988;4.644;2023-05-21T00:11:14;102034.06;;;14.92;70.99
38630;BME280;24384;51.988;4.644;2023-05-21T00:13:39;102024.44;;;14.89;70.91
38630;BME280;24384;51.988;4.644;2023-05-21T00:16:05;102021.78;;;14.89;71.19
38630;BME280;24384;51.988;4.644;2023-05-21T00:18:30;102023.41;;;14.93;71.17
38630;BME280;24384;51.988;4.644;2023-05-21T00:20:56;102024.25;;;14.95;71.51
38630;BME280;24384;51.988;4.644;2023-05-21T00:23:21;102020.53;;;14.99;71.64
38630;BME280;24384;51.988;4.644;2023-05-21T00:25:47;102016.06;;;15.01;71.42
38630;BME280;24384;51.988;4.644;2023-05-21T00:28:12;102015.88;;;15.08;71.13
38630;BME280;24384;51.988;4.644;2023-05-21T00:30:37;102016.56;;;15.13;71.06
38630;BME280;24384;51.988;4.644;2023-05-21T00:33:03;102019.97;;;15.16;71.29
38630;BME280;24384;51.988;4.644;2023-05-21T00:35:29;102027.09;;;15.16;71.16
38630;BME280;24384;51.988;4.644;2023-05-21T00:37:54;102018.31;;;15.14;71.72
38630;BME280;24384;51.988;4.644;2023-05-21T00:40:20;102016.78;;;15.07;72.23
38630;BME280;24384;51.988;4.644;2023-05-21T00:42:45;102021.63;;;15.20;71.35
38630;BME280;24384;51.988;4.644;2023-05-21T00:45:12;102014.50;;;15.21;71.64
38630;BME280;24384;51.988;4.644;2023-05-21T00:47:39;102014.72;;;15.15;72.13
38630;BME280;24384;51.988;4.644;2023-05-21T00:50:06;102019.81;;;15.21;72.11
38630;BME280;24384;51.988;4.644;2023-05-21T00:52:32;102020.09;;;15.13;72.42
38630;BME280;24384;51.988;4.644;2023-05-21T00:55:05;102015.41;;;15.21;71.92
38630;BME280;24384;51.988;4.644;2023-05-21T00:57:31;102016.56;;;15.13;72.90
38630;BME280;24384;51.988;4.644;2023-05-21T00:59:58;102009.31;;;15.18;73.05
38630;BME280;24384;51.988;4.644;2023-05-21T01:02:23;102006.25;;;15.03;73.91
38630;BME280;24384;51.988;4.644;2023-05-21T01:04:52;102010.94;;;15.22;72.89
38630;BME280;24384;51.988;4.644;2023-05-21T01:07:18;102006.69;;;15.16;73.77
38630;BME280;24384;51.988;4.644;2023-05-21T01:09:45;102001.22;;;15.21;73.85
38630;BME280;24384;51.988;4.644;2023-05-21T01:12:11;102008.19;;;15.25;74.52
38630;BME280;24384;51.988;4.644;2023-05-21T01:14:37;101997.41;;;15.30;74.19
38630;BME280;24384;51.988;4.644;2023-05-21T01:17:04;101999.31;;;15.26;73.95
38630;BME280;24384;51.988;4.644;2023-05-21T01:19:30;101994.94;;;15.24;74.56
38630;BME280;24384;51.988;4.644;2023-05-21T01:22:00;102003.03;;;15.20;74.57
38630;BME280;24384;51.988;4.644;2023-05-21T01:24:28;101989.53;;;15.27;74.51
38630;BME280;24384;51.988;4.644;2023-05-21T01:26:53;101990.34;;;15.29;74.66
38630;BME280;24384;51.988;4.644;2023-05-21T01:29:18;101991.22;;;15.29;74.27
38630;BME280;24384;51.988;4.644;2023-05-21T01:31:58;101985.81;;;15.32;74.55
38630;BME280;24384;51.988;4.644;2023-05-21T01:34:35;101987.47;;;15.35;74.24
38630;BME280;24384;51.988;4.644;2023-05-21T01:37:13;101991.75;;;15.39;75.05
38630;BME280;24384;51.988;4.644;2023-05-21T01:39:46;101981.50;;;15.28;75.35
38630;BME280;24384;51.988;4.644;2023-05-21T01:42:16;101978.00;;;15.28;75.51
38630;BME280;24384;51.988;4.644;2023-05-21T01:44:42;101992.25;;;15.25;75.87
38630;BME280;24384;51.988;4.644;2023-05-21T01:47:08;101987.50;;;15.33;75.86
38630;BME280;24384;51.988;4.644;2023-05-21T01:49:35;101990.91;;;15.38;75.28
38630;BME280;24384;51.988;4.644;2023-05-21T01:52:00;101994.63;;;15.33;75.57
38630;BME280;24384;51.988;4.644;2023-05-21T01:54:26;101991.22;;;15.29;76.44
38630;BME280;24384;51.988;4.644;2023-05-21T01:56:51;101989.59;;;15.25;76.85
38630;BME280;24384;51.988;4.644;2023-05-21T01:59:17;101989.31;;;15.33;76.00
38630;BME280;24384;51.988;4.644;2023-05-21T02:01:42;101988.50;;;15.31;76.02
38630;BME280;24384;51.988;4.644;2023-05-21T02:04:08;101992.94;;;15.30;76.53
38630;BME280;24384;51.988;4.644;2023-05-21T02:06:34;101991.38;;;15.25;76.68
38630;BME280;24384;51.988;4.644;2023-05-21T02:09:01;101988.41;;;15.34;75.85
38630;BME280;24384;51.988;4.644;2023-05-21T02:11:27;101985.97;;;15.28;76.33
38630;BME280;24384;51.988;4.644;2023-05-21T02:13:52;101987.56;;;15.32;76.11
38630;BME280;24384;51.988;4.644;2023-05-21T02:16:18;101983.69;;;15.42;75.20
38630;BME280;24384;51.988;4.644;2023-05-21T02:18:44;101981.50;;;15.28;76.19
38630;BME280;24384;51.988;4.644;2023-05-21T02:21:10;101981.50;;;15.28;76.07
38630;BME280;24384;51.988;4.644;2023-05-21T02:23:36;101980.44;;;15.34;76.15
38630;BME280;24384;51.988;4.644;2023-05-21T02:26:02;101981.13;;;15.39;75.64
38630;BME280;24384;51.988;4.644;2023-05-21T02:28:27;101983.03;;;15.35;76.05
38630;BME280;24384;51.988;4.644;2023-05-21T02:30:54;101976.03;;;15.33;75.92
38630;BME280;24384;51.988;4.644;2023-05-21T02:33:19;101971.94;;;15.22;76.29
38630;BME280;24384;51.988;4.644;2023-05-21T02:35:46;101984.25;;;15.25;76.43
38630;BME280;24384;51.988;4.644;2023-05-21T02:38:11;101981.56;;;15.27;76.48
38630;BME280;24384;51.988;4.644;2023-05-21T02:40:38;101977.09;;;15.27;76.32
38630;BME280;24384;51.988;4.644;2023-05-21T02:43:03;101984.38;;;15.22;76.35
38630;BME280;24384;51.988;4.644;2023-05-21T02:45:28;101978.16;;;15.23;75.73
38630;BME280;24384;51.988;4.644;2023-05-21T02:47:54;101983.50;;;15.21;75.95
38630;BME280;24384;51.988;4.644;2023-05-21T02:50:19;101985.19;;;15.24;75.80
38630;BME280;24384;51.988;4.644;2023-05-21T02:52:46;101980.84;;;15.21;75.81
38630;BME280;24384;51.988;4.644;2023-05-21T02:55:11;101989.91;;;15.16;75.91
38630;BME280;24384;51.988;4.644;2023-05-21T02:57:37;101983.34;;;15.26;75.10
38630;BME280;24384;51.988;4.644;2023-05-21T03:00:02;101976.41;;;15.22;75.64
38630;BME280;24384;51.988;4.644;2023-05-21T03:02:31;101984.25;;;15.25;75.74
38630;BME280;24384;51.988;4.644;2023-05-21T03:04:56;101979.75;;;15.27;74.88
38630;BME280;24384;51.988;4.644;2023-05-21T03:07:21;101986.72;;;15.31;75.35
38630;BME280;24384;51.988;4.644;2023-05-21T03:09:48;101974.72;;;15.19;75.57
38630;BME280;24384;51.988;4.644;2023-05-21T03:12:13;101976.44;;;15.20;75.55
38630;BME280;24384;51.988;4.644;2023-05-21T03:14:38;101971.78;;;15.27;74.88
38630;BME280;24384;51.988;4.644;2023-05-21T03:17:05;101971.88;;;15.24;75.13
38630;BME280;24384;51.988;4.644;2023-05-21T03:19:32;101978.91;;;15.27;75.30
38630;BME280;24384;51.988;4.644;2023-05-21T03:22:02;101973.53;;;15.28;75.42
38630;BME280;24384;51.988;4.644;2023-05-21T03:24:28;101964.97;;;15.20;76.06
38630;BME280;24384;51.988;4.644;2023-05-21T03:26:55;101966.53;;;15.26;75.68
38630;BME280;24384;51.988;4.644;2023-05-21T03:29:20;101965.81;;;15.20;75.65
38630;BME280;24384;51.988;4.644;2023-05-21T03:31:46;101965.06;;;15.17;75.70
38630;BME280;24384;51.988;4.644;2023-05-21T03:34:12;101966.03;;;15.14;75.48
38630;BME280;24384;51.988;4.644;2023-05-21T03:36:38;101966.69;;;15.21;75.23
38630;BME280;24384;51.988;4.644;2023-05-21T03:39:03;101966.69;;;15.21;75.09
38630;BME280;24384;51.988;4.644;2023-05-21T03:41:28;101958.91;;;15.15;75.49
38630;BME280;24384;51.988;4.644;2023-05-21T03:43:54;101961.38;;;15.21;74.93
38630;BME280;24384;51.988;4.644;2023-05-21T03:46:21;101959.88;;;15.14;75.05
38630;BME280;24384;51.988;4.644;2023-05-21T03:48:48;101968.75;;;15.13;75.49
38630;BME280;24384;51.988;4.644;2023-05-21T03:51:13;101970.34;;;15.18;74.81
38630;BME280;24384;51.988;4.644;2023-05-21T03:53:40;101970.38;;;15.17;74.21
38630;BME280;24384;51.988;4.644;2023-05-21T03:56:05;101970.50;;;15.14;74.62
38630;BME280;24384;51.988;4.644;2023-05-21T03:58:30;101974.88;;;15.15;74.83
38630;BME280;24384;51.988;4.644;2023-05-21T04:00:56;101961.63;;;15.13;74.78
38630;BME280;24384;51.988;4.644;2023-05-21T04:03:22;101962.53;;;15.14;74.95
38630;BME280;24384;51.988;4.644;2023-05-21T04:05:48;101962.25;;;15.21;74.36
38630;BME280;24384;51.988;4.644;2023-05-21T04:08:13;101963.16;;;15.20;74.21
38630;BME280;24384;51.988;4.644;2023-05-21T04:10:39;101963.97;;;15.22;74.30
38630;BME280;24384;51.988;4.644;2023-05-21T04:13:04;101960.19;;;15.30;73.42
38630;BME280;24384;51.988;4.644;2023-05-21T04:15:30;101961.72;;;15.37;73.02
38630;BME280;24384;51.988;4.644;2023-05-21T04:17:56;101961.22;;;15.26;73.36
38630;BME280;24384;51.988;4.644;2023-05-21T04:20:22;101961.41;;;15.19;73.87
38630;BME280;24384;51.988;4.644;2023-05-21T04:22:47;101961.31;;;15.22;73.73
38630;BME280;24384;51.988;4.644;2023-05-21T04:25:13;101966.47;;;15.27;73.35
38630;BME280;24384;51.988;4.644;2023-05-21T04:27:38;101963.59;;;15.33;73.44
38630;BME280;24384;51.988;4.644;2023-05-21T04:30:05;101963.00;;;15.25;74.15
38630;BME280;24384;51.988;4.644;2023-05-21T04:32:31;101961.16;;;15.27;74.13
38630;BME280;24384;51.988;4.644;2023-05-21T04:34:57;101966.63;;;15.22;74.25
38630;BME280;24384;51.988;4.644;2023-05-21T04:37:25;101977.94;;;15.29;73.61
38630;BME280;24384;51.988;4.644;2023-05-21T04:39:51;101977.00;;;15.30;74.08
38630;BME280;24384;51.988;4.644;2023-05-21T04:42:17;101975.81;;;15.39;73.21
38630;BME280;24384;51.988;4.644;2023-05-21T04:44:44;101971.25;;;15.43;73.07
38630;BME280;24384;51.988;4.644;2023-05-21T04:47:10;101967.69;;;15.44;73.40
38630;BME280;24384;51.988;4.644;2023-05-21T04:49:38;101967.91;;;15.37;74.07
38630;BME280;24384;51.988;4.644;2023-05-21T04:52:04;101965.97;;;15.41;74.03
38630;BME280;24384;51.988;4.644;2023-05-21T04:54:29;101966.03;;;15.39;74.55
38630;BME280;24384;51.988;4.644;2023-05-21T04:56:55;101964.50;;;15.34;75.17
38630;BME280;24384;51.988;4.644;2023-05-21T04:59:20;101967.91;;;15.37;75.68
38630;BME280;24384;51.988;4.644;2023-05-21T05:01:46;101960.22;;;15.53;74.66
38630;BME280;24384;51.988;4.644;2023-05-21T05:04:12;101964.63;;;15.54;75.69
38630;BME280;24384;51.988;4.644;2023-05-21T05:06:37;101963.00;;;15.50;75.46
38630;BME280;24384;51.988;4.644;2023-05-21T05:09:02;101963.66;;;15.57;75.45
38630;BME280;24384;51.988;4.644;2023-05-21T05:11:28;101967.47;;;15.50;76.33
38630;BME280;24384;51.988;4.644;2023-05-21T05:13:54;101969.91;;;15.56;76.01
38630;BME280;24384;51.988;4.644;2023-05-21T05:16:19;101958.25;;;15.60;76.11
38630;BME280;24384;51.988;4.644;2023-05-21T05:18:52;101962.44;;;15.66;75.54
38630;BME280;24384;51.988;4.644;2023-05-21T05:21:17;101960.78;;;15.63;76.35
38630;BME280;24384;51.988;4.644;2023-05-21T05:23:42;101960.56;;;15.69;76.21
38630;BME280;24384;51.988;4.644;2023-05-21T05:26:09;101957.84;;;15.71;76.75
38630;BME280;24384;51.988;4.644;2023-05-21T05:28:34;101957.19;;;15.64;76.43
38630;BME280;24384;51.988;4.644;2023-05-21T05:30:59;101954.28;;;15.70;76.63
38630;BME280;24384;51.988;4.644;2023-05-21T05:33:27;101952.69;;;15.66;77.75
38630;BME280;24384;51.988;4.644;2023-05-21T05:35:52;101951.47;;;15.75;77.16
38630;BME280;24384;51.988;4.644;2023-05-21T05:38:18;101947.63;;;15.84;77.18
38630;BME280;24384;51.988;4.644;2023-05-21T05:40:43;101948.31;;;15.89;76.50
38630;BME280;24384;51.988;4.644;2023-05-21T05:43:08;101941.97;;;15.93;76.85
38630;BME280;24384;51.988;4.644;2023-05-21T05:45:33;101940.44;;;16.09;75.63
38630;BME280;24384;51.988;4.644;2023-05-21T05:47:59;101942.25;;;16.09;76.05
38630;BME280;24384;51.988;4.644;2023-05-21T05:50:24;101950.16;;;16.10;75.31
38630;BME280;24384;51.988;4.644;2023-05-21T05:52:49;101943.88;;;16.13;75.18
38630;BME280;24384;51.988;4.644;2023-05-21T05:55:15;101947.03;;;16.23;75.02
38630;BME280;24384;51.988;4.644;2023-05-21T05:57:40;101937.34;;;16.20;75.09
38630;BME280;24384;51.988;4.644;2023-05-21T06:00:06;101945.94;;;16.28;75.56
38630;BME280;24384;51.988;4.644;2023-05-21T06:02:33;101940.59;;;16.28;75.08
38630;BME280;24384;51.988;4.644;2023-05-21T06:04:58;101944.84;;;16.33;75.45
38630;BME280;24384;51.988;4.644;2023-05-21T06:07:23;101948.16;;;16.39;75.83
38630;BME280;24384;51.988;4.644;2023-05-21T06:09:48;101948.72;;;16.47;74.73
38630;BME280;24384;51.988;4.644;2023-05-21T06:12:14;101942.34;;;16.52;74.46
38630;BME280;24384;51.988;4.644;2023-05-21T06:14:40;101945.66;;;16.57;74.32
38630;BME280;24384;51.988;4.644;2023-05-21T06:17:06;101944.25;;;16.48;74.73
38630;BME280;24384;51.988;4.644;2023-05-21T06:19:31;101942.84;;;16.39;75.28
38630;BME280;24384;51.988;4.644;2023-05-21T06:21:56;101944.69;;;16.59;74.89
38630;BME280;24384;51.988;4.644;2023-05-21T06:24:21;101944.63;;;16.61;73.91
38630;BME280;24384;51.988;4.644;2023-05-21T06:26:47;101952.13;;;16.73;74.10
38630;BME280;24384;51.988;4.644;2023-05-21T06:29:12;101944.63;;;16.61;75.33
38630;BME280;24384;51.988;4.644;2023-05-21T06:31:37;101943.94;;;16.78;74.53
38630;BME280;24384;51.988;4.644;2023-05-21T06:34:03;101948.03;;;16.87;74.09
38630;BME280;24384;51.988;4.644;2023-05-21T06:36:28;101952.25;;;16.92;74.74
38630;BME280;24384;51.988;4.644;2023-05-21T06:38:57;101952.56;;;17.05;74.46
38630;BME280;24384;51.988;4.644;2023-05-21T06:41:22;101955.19;;;17.27;74.04
38630;BME280;24384;51.988;4.644;2023-05-21T06:43:48;101956.31;;;17.42;72.48
38630;BME280;24384;51.988;4.644;2023-05-21T06:46:13;101956.56;;;17.36;72.84
38630;BME280;24384;51.988;4.644;2023-05-21T06:48:38;101952.06;;;17.38;72.29
38630;BME280;24384;51.988;4.644;2023-05-21T06:51:04;101957.13;;;17.44;71.90
38630;BME280;24384;51.988;4.644;2023-05-21T06:53:29;101950.13;;;17.42;72.23
38630;BME280;24384;51.988;4.644;2023-05-21T06:55:54;101950.97;;;17.42;72.46
38630;BME280;24384;51.988;4.644;2023-05-21T06:58:20;101944.78;;;17.42;72.20
38630;BME280;24384;51.988;4.644;2023-05-21T07:00:46;101949.88;;;17.67;72.45
38630;BME280;24384;51.988;4.644;2023-05-21T07:03:11;101953.63;;;17.42;72.25
38630;BME280;24384;51.988;4.644;2023-05-21T07:05:36;101961.84;;;17.58;71.95
38630;BME280;24384;51.988;4.644;2023-05-21T07:08:01;101958.44;;;17.54;72.31
38630;BME280;24384;51.988;4.644;2023-05-21T07:10:26;101967.69;;;17.66;72.86
38630;BME280;24384;51.988;4.644;2023-05-21T07:12:52;101957.66;;;17.71;71.55
38630;BME280;24384;51.988;4.644;2023-05-21T07:15:17;101962.34;;;17.66;71.43
38630;BME280;24384;51.988;4.644;2023-05-21T07:17:43;101959.56;;;17.69;70.75
38630;BME280;24384;51.988;4.644;2023-05-21T07:20:08;101964.03;;;17.88;70.02
38630;BME280;24384;51.988;4.644;2023-05-21T07:22:37;101967.84;;;17.82;69.92
38630;BME280;24384;51.988;4.644;2023-05-21T07:25:02;101965.31;;;17.79;70.39
38630;BME280;24384;51.988;4.644;2023-05-21T07:27:28;101962.00;;;17.74;71.40
38630;BME280;24384;51.988;4.644;2023-05-21T07:29:53;101960.00;;;17.79;70.10
38630;BME280;24384;51.988;4.644;2023-05-21T07:32:18;101957.88;;;17.67;70.77
38630;BME280;24384;51.988;4.644;2023-05-21T07:34:43;101957.88;;;17.67;71.18
38630;BME280;24384;51.988;4.644;2023-05-21T07:37:09;101970.63;;;17.60;71.38
38630;BME280;24384;51.988;4.644;2023-05-21T07:39:34;101962.28;;;17.68;70.52
38630;BME280;24384;51.988;4.644;2023-05-21T07:41:59;101960.88;;;17.59;70.25
38630;BME280;24384;51.988;4.644;2023-05-21T07:44:25;101964.25;;;17.64;70.78
38630;BME280;24384;51.988;4.644;2023-05-21T07:46:50;101961.22;;;17.72;71.14
38630;BME280;24384;51.988;4.644;2023-05-21T07:49:15;101960.63;;;18.05;70.97
38630;BME280;24384;51.988;4.644;2023-05-21T07:51:43;101955.78;;;18.13;70.78
38630;BME280;24384;51.988;4.644;2023-05-21T07:54:09;101947.41;;;18.40;68.79
38630;BME280;24384;51.988;4.644;2023-05-21T07:56:34;101942.88;;;18.59;69.41
38630;BME280;24384;51.988;4.644;2023-05-21T07:59:00;101951.56;;;18.46;69.54
38630;BME280;24384;51.988;4.644;2023-05-21T08:01:26;101951.78;;;18.60;69.48
38630;BME280;24384;51.988;4.644;2023-05-21T08:03:53;101938.59;;;18.74;67.67
38630;BME280;24384;51.988;4.644;2023-05-21T08:06:19;101938.97;;;18.67;67.03
38630;BME280;24384;51.988;4.644;2023-05-21T08:08:44;101942.00;;;18.41;67.84
38630;BME280;24384;51.988;4.644;2023-05-21T08:11:09;101943.19;;;18.53;66.90
38630;BME280;24384;51.988;4.644;2023-05-21T08:13:35;101944.84;;;18.56;67.57
38630;BME280;24384;51.988;4.644;2023-05-21T08:16:00;101938.56;;;18.57;66.81
38630;BME280;24384;51.988;4.644;2023-05-21T08:18:25;101942.03;;;18.59;66.67
38630;BME280;24384;51.988;4.644;2023-05-21T08:20:51;101943.00;;;18.75;66.94
38630;BME280;24384;51.988;4.644;2023-05-21T08:23:16;101946.09;;;18.85;65.39
38630;BME280;24384;51.988;4.644;2023-05-21T08:25:41;101947.13;;;19.00;64.95
38630;BME280;24384;51.988;4.644;2023-05-21T08:28:07;101942.34;;;19.07;65.26
38630;BME280;24384;51.988;4.644;2023-05-21T08:30:32;101946.81;;;19.24;65.16
38630;BME280;24384;51.988;4.644;2023-05-21T08:32:57;101941.78;;;19.18;64.68
38630;BME280;24384;51.988;4.644;2023-05-21T08:35:23;101943.28;;;19.57;64.68
38630;BME280;24384;51.988;4.644;2023-05-21T08:37:48;101936.94;;;19.75;65.27
38630;BME280;24384;51.988;4.644;2023-05-21T08:40:13;101944.53;;;20.00;64.04
38630;BME280;24384;51.988;4.644;2023-05-21T08:42:49;101932.78;;;19.87;62.29
38630;BME280;24384;51.988;4.644;2023-05-21T08:45:24;101933.03;;;19.98;62.42
38630;BME280;24384;51.988;4.644;2023-05-21T08:47:55;101925.88;;;19.99;60.78
38630;BME280;24384;51.988;4.644;2023-05-21T08:50:23;101938.56;;;19.95;61.60
38630;BME280;24384;51.988;4.644;2023-05-21T08:52:50;101935.28;;;19.90;61.21
38630;BME280;24384;51.988;4.644;2023-05-21T08:55:15;101929.94;;;19.90;61.07
38630;BME280;24384;51.988;4.644;2023-05-21T08:57:42;101931.84;;;20.04;62.59
38630;BME280;24384;51.988;4.644;2023-05-21T09:00:10;101928.81;;;20.26;61.94
38630;BME280;24384;51.988;4.644;2023-05-21T09:02:37;101927.00;;;20.11;59.64
38630;BME280;24384;51.988;4.644;2023-05-21T09:05:05;101935.13;;;20.25;59.75
38630;BME280;24384;51.988;4.644;2023-05-21T09:07:37;101924.88;;;20.48;60.97
38630;BME280;24384;51.988;4.644;2023-05-21T09:10:05;101925.50;;;20.69;59.68
38630;BME280;24384;51.988;4.644;2023-05-21T09:12:33;101931.13;;;20.48;57.37
38630;BME280;24384;51.988;4.644;2023-05-21T09:15:00;101920.69;;;20.28;58.90
38630;BME280;24384;51.988;4.644;2023-05-21T09:17:25;101919.34;;;20.51;59.25
38630;BME280;24384;51.988;4.644;2023-05-21T09:22:42;101920.56;;;20.61;58.50
38630;BME280;24384;51.988;4.644;2023-05-21T09:25:09;101921.59;;;20.74;57.04
38630;BME280;24384;51.988;4.644;2023-05-21T09:27:35;101915.00;;;20.80;56.52
38630;BME280;24384;51.988;4.644;2023-05-21T09:30:02;101918.13;;;20.72;58.92
38630;BME280;24384;51.988;4.644;2023-05-21T09:32:27;101923.31;;;21.06;56.78
38630;BME280;24384;51.988;4.644;2023-05-21T09:34:53;101914.25;;;21.23;56.30
38630;BME280;24384;51.988;4.644;2023-05-21T09:37:18;101907.75;;;21.41;55.60
38630;BME280;24384;51.988;4.644;2023-05-21T09:39:46;101913.47;;;21.93;56.64
38630;BME280;24384;51.988;4.644;2023-05-21T09:42:12;101913.63;;;22.04;54.94
38630;BME280;24384;51.988;4.644;2023-05-21T09:44:37;101912.81;;;21.89;54.78
38630;BME280;24384;51.988;4.644;2023-05-21T09:47:02;101903.22;;;22.27;54.64
38630;BME280;24384;51.988;4.644;2023-05-21T09:49:28;101901.53;;;22.53;53.35
38630;BME280;24384;51.988;4.644;2023-05-21T09:51:55;101896.34;;;22.90;51.20
38630;BME280;24384;51.988;4.644;2023-05-21T09:54:21;101902.34;;;22.94;52.56
38630;BME280;24384;51.988;4.644;2023-05-21T09:56:47;101901.56;;;23.32;51.95
38630;BME280;24384;51.988;4.644;2023-05-21T09:59:12;101892.59;;;23.57;49.79
38630;BME280;24384;51.988;4.644;2023-05-21T10:01:37;101898.09;;;23.55;51.06
38630;BME280;24384;51.988;4.644;2023-05-21T10:04:05;101894.41;;;23.69;49.93
38630;BME280;24384;51.988;4.644;2023-05-21T10:06:36;101895.41;;;23.55;50.03
38630;BME280;24384;51.988;4.644;2023-05-21T10:09:06;101888.06;;;23.70;48.49
38630;BME280;24384;51.988;4.644;2023-05-21T10:11:32;101888.81;;;23.85;49.03
38630;BME280;24384;51.988;4.644;2023-05-21T10:14:05;101883.09;;;24.14;48.76
38630;BME280;24384;51.988;4.644;2023-05-21T10:16:35;101886.78;;;24.13;47.83
38630;BME280;24384;51.988;4.644;2023-05-21T10:19:01;101889.31;;;24.27;49.28
38630;BME280;24384;51.988;4.644;2023-05-21T10:21:27;101891.06;;;23.91;48.49
38630;BME280;24384;51.988;4.644;2023-05-21T10:23:54;101883.56;;;24.32;49.25
38630;BME280;24384;51.988;4.644;2023-05-21T10:26:22;101882.13;;;24.39;46.77
38630;BME280;24384;51.988;4.644;2023-05-21T10:28:49;101880.78;;;24.58;46.08
38630;BME280;24384;51.988;4.644;2023-05-21T10:31:15;101868.22;;;24.92;46.20
38630;BME280;24384;51.988;4.644;2023-05-21T10:33:40;101875.44;;;24.80;47.54
38630;BME280;24384;51.988;4.644;2023-05-21T10:36:07;101869.50;;;25.22;46.88
38630;BME280;24384;51.988;4.644;2023-05-21T10:38:32;101876.06;;;24.84;46.00
38630;BME280;24384;51.988;4.644;2023-05-21T10:40:59;101858.88;;;24.85;45.20
38630;BME280;24384;51.988;4.644;2023-05-21T10:51:53;101863.06;;;24.78;48.22
38630;BME280;24384;51.988;4.644;2023-05-21T10:54:46;101860.63;;;24.86;48.31
38630;BME280;24384;51.988;4.644;2023-05-21T11:00:19;101857.88;;;25.33;45.12
38630;BME280;24384;51.988;4.644;2023-05-21T11:02:49;101863.16;;;25.46;46.29
38630;BME280;24384;51.988;4.644;2023-05-21T11:05:37;101859.91;;;25.74;45.80
38630;BME280;24384;51.988;4.644;2023-05-21T11:08:02;101856.41;;;25.63;45.96
38630;BME280;24384;51.988;4.644;2023-05-21T11:10:30;101853.22;;;25.46;43.74
38630;BME280;24384;51.988;4.644;2023-05-21T11:21:02;101843.97;;;25.71;44.04
38630;BME280;24384;51.988;4.644;2023-05-21T11:23:47;101837.84;;;25.69;43.50
38630;BME280;24384;51.988;4.644;2023-05-21T11:26:16;101844.19;;;25.91;43.43
38630;BME280;24384;51.988;4.644;2023-05-21T11:28:42;101832.13;;;26.06;43.77
38630;BME280;24384;51.988;4.644;2023-05-21T11:31:27;101825.50;;;26.11;41.49
38630;BME280;24384;51.988;4.644;2023-05-21T11:36:36;101835.53;;;26.20;43.15
38630;BME280;24384;51.988;4.644;2023-05-21T11:42:01;101817.53;;;25.98;43.22
38630;BME280;24384;51.988;4.644;2023-05-21T11:44:43;101820.66;;;26.14;42.60
38630;BME280;24384;51.988;4.644;2023-05-21T11:47:10;101815.47;;;26.22;42.41
38630;BME280;24384;51.988;4.644;2023-05-21T11:49:36;101819.44;;;26.18;42.03
38630;BME280;24384;51.988;4.644;2023-05-21T11:52:04;101810.38;;;26.08;42.69
38630;BME280;24384;51.988;4.644;2023-05-21T11:54:31;101816.69;;;26.30;43.69
38630;BME280;24384;51.988;4.644;2023-05-21T11:56:59;101819.47;;;25.96;43.71
38630;BME280;24384;51.988;4.644;2023-05-21T11:59:27;101822.63;;;25.57;43.37
38630;BME280;24384;51.988;4.644;2023-05-21T12:01:53;101808.84;;;25.83;45.15
38630;BME280;24384;51.988;4.644;2023-05-21T12:04:19;101812.44;;;25.72;43.07
38630;BME280;24384;51.988;4.644;2023-05-21T12:06:44;101804.72;;;26.11;44.06
38630;BME280;24384;51.988;4.644;2023-05-21T12:09:10;101809.53;;;26.07;42.05
38630;BME280;24384;51.988;4.644;2023-05-21T12:11:39;101807.16;;;25.70;46.16
38630;BME280;24384;51.988;4.644;2023-05-21T12:14:11;101803.94;;;25.65;45.34
38630;BME280;24384;51.988;4.644;2023-05-21T12:16:38;101809.63;;;25.51;44.86
38630;BME280;24384;51.988;4.644;2023-05-21T12:19:04;101792.84;;;25.91;45.71
38630;BME280;24384;51.988;4.644;2023-05-21T12:21:30;101805.38;;;25.81;43.92
38630;BME280;24384;51.988;4.644;2023-05-21T12:23:56;101798.97;;;25.93;44.78
38630;BME280;24384;51.988;4.644;2023-05-21T12:26:23;101805.13;;;25.95;45.35
38630;BME280;24384;51.988;4.644;2023-05-21T12:28:51;101798.91;;;26.16;43.11
38630;BME280;24384;51.988;4.644;2023-05-21T12:31:16;101804.59;;;26.55;44.51
38630;BME280;24384;51.988;4.644;2023-05-21T12:33:47;101797.75;;;26.93;42.96
38630;BME280;24384;51.988;4.644;2023-05-21T12:36:26;101801.75;;;26.98;44.29
38630;BME280;24384;51.988;4.644;2023-05-21T12:38:52;101797.38;;;27.07;42.36
38630;BME280;24384;51.988;4.644;2023-05-21T12:41:18;101789.56;;;27.14;42.15
38630;BME280;24384;51.988;4.644;2023-05-21T12:43:45;101792.34;;;26.93;43.14
38630;BME280;24384;51.988;4.644;2023-05-21T12:46:11;101788.84;;;26.81;42.95
38630;BME280;24384;51.988;4.644;2023-05-21T12:48:47;101777.59;;;26.76;41.54
38630;BME280;24384;51.988;4.644;2023-05-21T12:51:12;101780.06;;;26.47;45.77
38630;BME280;24384;51.988;4.644;2023-05-21T12:53:40;101772.66;;;26.91;44.18
38630;BME280;24384;51.988;4.644;2023-05-21T12:56:10;101779.25;;;26.98;43.40
38630;BME280;24384;51.988;4.644;2023-05-21T12:58:35;101775.72;;;27.07;42.74
38630;BME280;24384;51.988;4.644;2023-05-21T13:01:07;101776.63;;;26.87;43.90
38630;BME280;24384;51.988;4.644;2023-05-21T13:03:34;101776.28;;;27.32;43.46
38630;BME280;24384;51.988;4.644;2023-05-21T13:06:00;101786.00;;;27.54;43.07
38630;BME280;24384;51.988;4.644;2023-05-21T13:08:25;101788.84;;;27.52;41.03
38630;BME280;24384;51.988;4.644;2023-05-21T13:10:51;101791.56;;;27.52;43.10
38630;BME280;24384;51.988;4.644;2023-05-21T13:13:16;101782.94;;;27.78;42.49
38630;BME280;24384;51.988;4.644;2023-05-21T13:15:41;101783.63;;;27.80;41.13